Startpagina
METAR-TAF:

METAR-TAF

Vliegvelden :

Luchthaven Haneda

Tokio-Haneda, Japan

breedte: 35-33N, lengte: 139-47E, hoogte: 5 m

Actueel weer

Dit bericht is 18 minuten geleden gemaakt, om 23:00 UTC
Wind 5 kt uit het oostnoordoosten
Temperatuur 20°C
Vochtigheid 83%
Druk 1011 hPa
Zicht 10 km of meer
Weinig wolken op 900 ft

METAR: RJTT 262300Z 07005KT 9999 FEW009 20/17 Q1011 NOSIG RMK 1CU009 A2987

Tijdstip: 08:18 (23:18 UTC)

Verwachting

Dit bericht is 6 uur en het 13 minuten geleden gemaakt, om 17:05 UTC
Verwachting geldig van 26 om 18 UTC tot 28 om 00 UTC
Wind 8 kt uit het noordoosten
Zicht 10 km of meer
Weinig wolken op 1500 ft
Wijzigt naar
van 26 om 22 UTC tot 27 om 00 UTC
Wind 8 kt uit het oosten
Wijzigt naar
van 27 om 03 UTC tot 27 om 05 UTC
Wind 14 kt uit het zuiden
Wijzigt naar
van 27 om 09 UTC tot 27 om 12 UTC
Wind 8 kt uit het oosten

TAF: RJTT 261705Z 2618/2800 05008KT 9999 FEW015 BECMG 2622/2700 10008KT BECMG 2703/2705 18014KT BECMG 2709/2712 08008KT

Waarnemingen en weersverwachtingen van meer dan 4000 vliegvelden (METAR en TAF).

De beschikbare stations zijn de gele en rode punten op de kaart.

Ga met uw muis naar het station om de naam te zien.

Klik dan om waarnemingen en weersverwachtingen te zien.

kaart wijzigen: klik op de groene knoppen met een zwart kruis om in te zoomen, op de groene knop met een streepje om uit te zoomen of op de groene pijlen voor aangrenzende kaarten.


METAR-TAF: